Pleasant Hill, South Carolina
Current Conditions -  °F | °C
As of 8:15 AM on Thursday 27 Nov 2014 (Local Time) from KLKR Reporting Station
Light Rain Light Rain  
Wind Chill: 32°   Ceiling: Unl
Heat Index: 37°   Visibility: 10mi
Dew Point: 36°   Wind: 7mph
Humidity: 93%   Direction: 260°W
Pressure: 30.05"   Gusts: NA
Location:  34.5669°N, 80.7524°W
Report Text: KLKR 271315Z AUTO 26006KT 10SM -RA CLR 03/02 A3005 RMK AO2
Loading
Personal Weather Stations






























Interactive Weather Map New forecast layout! Learn more

10-Day Weather Forecast

Advertisements
Track Severe Weather on mobile